Morse, Minnesota
Current Conditions -  °F | °C
As of 10:13 PM on Sunday 23 Nov 2014 (Local Time) from KFOZ Reporting Station
Drizzle Drizzle  
Wind Chill: 32°   Ceiling: 700
Heat Index: 36°   Visibility: 3mi
Dew Point: 34°   Wind: 5mph
Humidity: 93%   Direction: 320°NW
Pressure: 29.37"   Gusts: NA
Location:  47.4603°N, 94.029°W
Report Text: KFOZ 240413Z AUTO 32004KT 3SM DZ OVC007 02/01 A2937 RMK AO2
Loading
Personal Weather Stations






























Interactive Weather Map New forecast layout! Learn more

10-Day Weather Forecast

Advertisements
Track Severe Weather on mobile